Terminal Aerodrome Forecast
Issued by NWS

Home | Current Version | Previous Version | Graphics & Text | Print | Product List | Glossary On
Versions: 1 2 3 4 5 6 7 8 9 10 11 12 13 14 15 16 17 18
000
FTUS43 KFGF 200520
TAFBJI
TAF
KBJI 200520Z 2006/2106 12015G24KT P6SM -TSRA OVC035CB
      TEMPO 2006/2009 2SM TSRA BKN015CB
     FM200900 17008KT P6SM VCSH OVC025
     FM201100 22009KT P6SM VCSH OVC020
     FM201800 25012KT P6SM FEW200
     FM210000 21005KT P6SM SKC=

USA.gov is the U.S. government's official web portal to all federal, state and local government web resources and services.